sensor_id;sensor_type;location;lat;lon;timestamp;P1;durP1;ratioP1;P2;durP2;ratioP2
9082;SDS011;4577;48.704;9.000;2022-09-13T00:00:48;6.43;;;2.57;;
9082;SDS011;4577;48.704;9.000;2022-09-13T00:03:15;9.17;;;3.17;;
9082;SDS011;4577;48.704;9.000;2022-09-13T00:05:41;4.63;;;2.83;;
9082;SDS011;4577;48.704;9.000;2022-09-13T00:08:07;2.43;;;2.23;;
9082;SDS011;4577;48.704;9.000;2022-09-13T00:10:34;5.20;;;2.50;;
9082;SDS011;4577;48.704;9.000;2022-09-13T00:13:02;4.60;;;2.50;;
9082;SDS011;4577;48.704;9.000;2022-09-13T00:15:28;4.37;;;2.30;;
9082;SDS011;4577;48.704;9.000;2022-09-13T00:17:54;5.67;;;2.20;;
9082;SDS011;4577;48.704;9.000;2022-09-13T00:20:20;4.23;;;2.20;;
9082;SDS011;4577;48.704;9.000;2022-09-13T00:22:46;4.53;;;1.90;;
9082;SDS011;4577;48.704;9.000;2022-09-13T00:25:12;5.90;;;2.40;;
9082;SDS011;4577;48.704;9.000;2022-09-13T00:27:38;3.13;;;2.03;;
9082;SDS011;4577;48.704;9.000;2022-09-13T00:30:05;2.73;;;1.97;;
9082;SDS011;4577;48.704;9.000;2022-09-13T00:32:32;1.90;;;1.80;;
9082;SDS011;4577;48.704;9.000;2022-09-13T00:34:59;5.67;;;2.20;;
9082;SDS011;4577;48.704;9.000;2022-09-13T00:37:26;2.37;;;2.00;;
9082;SDS011;4577;48.704;9.000;2022-09-13T00:39:51;5.73;;;1.90;;
9082;SDS011;4577;48.704;9.000;2022-09-13T00:42:17;3.13;;;2.00;;
9082;SDS011;4577;48.704;9.000;2022-09-13T00:44:57;2.97;;;1.73;;
9082;SDS011;4577;48.704;9.000;2022-09-13T00:47:38;4.47;;;2.10;;
9082;SDS011;4577;48.704;9.000;2022-09-13T00:50:16;10.10;;;1.90;;
9082;SDS011;4577;48.704;9.000;2022-09-13T00:52:46;4.07;;;2.60;;
9082;SDS011;4577;48.704;9.000;2022-09-13T00:55:37;4.83;;;2.67;;
9082;SDS011;4577;48.704;9.000;2022-09-13T00:58:15;11.03;;;5.47;;
9082;SDS011;4577;48.704;9.000;2022-09-13T01:00:46;7.83;;;4.33;;
9082;SDS011;4577;48.704;9.000;2022-09-13T01:03:12;3.93;;;2.83;;
9082;SDS011;4577;48.704;9.000;2022-09-13T01:05:42;6.30;;;3.40;;
9082;SDS011;4577;48.704;9.000;2022-09-13T01:08:11;8.03;;;1.90;;
9082;SDS011;4577;48.704;9.000;2022-09-13T01:10:47;6.57;;;3.60;;
9082;SDS011;4577;48.704;9.000;2022-09-13T01:13:15;2.87;;;2.33;;
9082;SDS011;4577;48.704;9.000;2022-09-13T01:15:45;6.40;;;3.00;;
9082;SDS011;4577;48.704;9.000;2022-09-13T01:18:11;6.80;;;2.90;;
9082;SDS011;4577;48.704;9.000;2022-09-13T01:46:12;2.67;;;2.27;;
9082;SDS011;4577;48.704;9.000;2022-09-13T01:54:47;4.40;;;1.90;;
9082;SDS011;4577;48.704;9.000;2022-09-13T01:57:37;8.83;;;2.10;;
9082;SDS011;4577;48.704;9.000;2022-09-13T02:00:14;8.40;;;1.90;;
9082;SDS011;4577;48.704;9.000;2022-09-13T02:05:37;2.93;;;2.57;;
9082;SDS011;4577;48.704;9.000;2022-09-13T02:08:20;8.60;;;4.90;;
9082;SDS011;4577;48.704;9.000;2022-09-13T02:11:07;3.20;;;2.60;;
9082;SDS011;4577;48.704;9.000;2022-09-13T02:13:39;2.07;;;1.90;;
9082;SDS011;4577;48.704;9.000;2022-09-13T02:16:30;4.03;;;1.93;;
9082;SDS011;4577;48.704;9.000;2022-09-13T02:19:09;2.40;;;2.13;;
9082;SDS011;4577;48.704;9.000;2022-09-13T02:21:43;2.00;;;1.80;;
9082;SDS011;4577;48.704;9.000;2022-09-13T02:24:13;2.10;;;2.00;;
9082;SDS011;4577;48.704;9.000;2022-09-13T02:26:41;2.63;;;2.07;;
9082;SDS011;4577;48.704;9.000;2022-09-13T02:29:13;2.50;;;2.03;;
9082;SDS011;4577;48.704;9.000;2022-09-13T02:31:47;2.73;;;2.00;;
9082;SDS011;4577;48.704;9.000;2022-09-13T02:34:41;2.60;;;1.97;;
9082;SDS011;4577;48.704;9.000;2022-09-13T02:37:15;5.30;;;1.80;;
9082;SDS011;4577;48.704;9.000;2022-09-13T02:39:52;4.00;;;2.10;;
9082;SDS011;4577;48.704;9.000;2022-09-13T02:42:42;2.33;;;2.10;;
9082;SDS011;4577;48.704;9.000;2022-09-13T02:45:14;3.50;;;2.13;;
9082;SDS011;4577;48.704;9.000;2022-09-13T02:47:46;6.40;;;2.10;;
9082;SDS011;4577;48.704;9.000;2022-09-13T03:01:11;4.33;;;2.13;;
9082;SDS011;4577;48.704;9.000;2022-09-13T03:03:37;2.97;;;2.07;;
9082;SDS011;4577;48.704;9.000;2022-09-13T03:06:03;2.50;;;2.27;;
9082;SDS011;4577;48.704;9.000;2022-09-13T03:08:29;4.73;;;2.00;;
9082;SDS011;4577;48.704;9.000;2022-09-13T03:11:18;2.60;;;2.40;;
9082;SDS011;4577;48.704;9.000;2022-09-13T03:25:07;2.80;;;2.27;;
9082;SDS011;4577;48.704;9.000;2022-09-13T03:30:33;3.47;;;2.60;;
9082;SDS011;4577;48.704;9.000;2022-09-13T03:33:17;3.27;;;2.50;;
9082;SDS011;4577;48.704;9.000;2022-09-13T03:35:51;6.37;;;2.10;;
9082;SDS011;4577;48.704;9.000;2022-09-13T03:38:26;4.07;;;2.30;;
9082;SDS011;4577;48.704;9.000;2022-09-13T03:43:34;2.90;;;2.30;;
9082;SDS011;4577;48.704;9.000;2022-09-13T03:46:12;3.73;;;2.43;;
9082;SDS011;4577;48.704;9.000;2022-09-13T03:48:41;2.40;;;2.20;;
9082;SDS011;4577;48.704;9.000;2022-09-13T03:51:09;3.30;;;2.30;;
9082;SDS011;4577;48.704;9.000;2022-09-13T03:53:40;6.03;;;2.27;;
9082;SDS011;4577;48.704;9.000;2022-09-13T03:56:13;6.00;;;2.30;;
9082;SDS011;4577;48.704;9.000;2022-09-13T03:58:40;9.70;;;2.20;;
9082;SDS011;4577;48.704;9.000;2022-09-13T04:01:06;3.70;;;2.50;;
9082;SDS011;4577;48.704;9.000;2022-09-13T04:03:34;3.50;;;2.23;;
9082;SDS011;4577;48.704;9.000;2022-09-13T04:06:03;5.23;;;2.80;;
9082;SDS011;4577;48.704;9.000;2022-09-13T04:08:29;2.70;;;2.50;;
9082;SDS011;4577;48.704;9.000;2022-09-13T04:10:56;2.80;;;2.50;;
9082;SDS011;4577;48.704;9.000;2022-09-13T04:13:22;4.83;;;2.40;;
9082;SDS011;4577;48.704;9.000;2022-09-13T04:15:48;4.80;;;2.73;;
9082;SDS011;4577;48.704;9.000;2022-09-13T04:18:14;3.33;;;2.63;;
9082;SDS011;4577;48.704;9.000;2022-09-13T04:20:40;4.80;;;2.30;;
9082;SDS011;4577;48.704;9.000;2022-09-13T04:23:06;5.53;;;2.93;;
9082;SDS011;4577;48.704;9.000;2022-09-13T04:25:33;2.87;;;2.13;;
9082;SDS011;4577;48.704;9.000;2022-09-13T04:27:58;5.53;;;2.70;;
9082;SDS011;4577;48.704;9.000;2022-09-13T04:30:27;4.97;;;2.90;;
9082;SDS011;4577;48.704;9.000;2022-09-13T04:32:54;2.93;;;2.70;;
9082;SDS011;4577;48.704;9.000;2022-09-13T04:35:23;8.00;;;3.10;;
9082;SDS011;4577;48.704;9.000;2022-09-13T04:37:49;6.07;;;3.20;;
9082;SDS011;4577;48.704;9.000;2022-09-13T04:40:15;3.87;;;3.00;;
9082;SDS011;4577;48.704;9.000;2022-09-13T04:42:44;10.17;;;3.10;;
9082;SDS011;4577;48.704;9.000;2022-09-13T04:45:10;5.57;;;2.50;;
9082;SDS011;4577;48.704;9.000;2022-09-13T04:47:36;4.63;;;2.80;;
9082;SDS011;4577;48.704;9.000;2022-09-13T04:50:02;7.33;;;2.80;;
9082;SDS011;4577;48.704;9.000;2022-09-13T04:52:28;5.43;;;3.30;;
9082;SDS011;4577;48.704;9.000;2022-09-13T04:54:54;5.87;;;3.10;;
9082;SDS011;4577;48.704;9.000;2022-09-13T04:57:24;3.53;;;2.93;;
9082;SDS011;4577;48.704;9.000;2022-09-13T04:59:50;4.53;;;3.43;;
9082;SDS011;4577;48.704;9.000;2022-09-13T05:02:15;6.40;;;4.00;;
9082;SDS011;4577;48.704;9.000;2022-09-13T05:04:41;5.27;;;3.43;;
9082;SDS011;4577;48.704;9.000;2022-09-13T05:07:07;6.90;;;3.30;;
9082;SDS011;4577;48.704;9.000;2022-09-13T05:09:33;4.70;;;3.13;;
9082;SDS011;4577;48.704;9.000;2022-09-13T05:11:59;27.50;;;6.70;;
9082;SDS011;4577;48.704;9.000;2022-09-13T05:14:25;5.83;;;2.77;;
9082;SDS011;4577;48.704;9.000;2022-09-13T05:16:51;11.10;;;3.77;;
9082;SDS011;4577;48.704;9.000;2022-09-13T05:19:16;7.27;;;3.50;;
9082;SDS011;4577;48.704;9.000;2022-09-13T05:21:42;6.77;;;3.53;;
9082;SDS011;4577;48.704;9.000;2022-09-13T05:24:08;6.57;;;3.67;;
9082;SDS011;4577;48.704;9.000;2022-09-13T05:26:35;9.50;;;3.37;;
9082;SDS011;4577;48.704;9.000;2022-09-13T05:29:01;6.53;;;4.00;;
9082;SDS011;4577;48.704;9.000;2022-09-13T05:31:28;8.30;;;4.10;;
9082;SDS011;4577;48.704;9.000;2022-09-13T05:34:06;6.03;;;3.80;;
9082;SDS011;4577;48.704;9.000;2022-09-13T05:36:34;11.10;;;9.37;;
9082;SDS011;4577;48.704;9.000;2022-09-13T05:39:00;10.13;;;7.03;;
9082;SDS011;4577;48.704;9.000;2022-09-13T05:41:27;23.03;;;5.33;;
9082;SDS011;4577;48.704;9.000;2022-09-13T05:43:52;5.53;;;4.10;;
9082;SDS011;4577;48.704;9.000;2022-09-13T05:46:19;6.20;;;4.10;;
9082;SDS011;4577;48.704;9.000;2022-09-13T05:48:45;6.00;;;3.70;;
9082;SDS011;4577;48.704;9.000;2022-09-13T05:51:19;8.10;;;3.90;;
9082;SDS011;4577;48.704;9.000;2022-09-13T05:53:47;6.57;;;4.40;;
9082;SDS011;4577;48.704;9.000;2022-09-13T05:56:19;4.33;;;3.80;;
9082;SDS011;4577;48.704;9.000;2022-09-13T05:58:46;5.20;;;4.10;;
9082;SDS011;4577;48.704;9.000;2022-09-13T06:01:14;9.87;;;4.10;;
9082;SDS011;4577;48.704;9.000;2022-09-13T06:03:51;10.00;;;4.43;;
9082;SDS011;4577;48.704;9.000;2022-09-13T06:06:19;8.60;;;4.60;;
9082;SDS011;4577;48.704;9.000;2022-09-13T06:08:46;7.00;;;3.83;;
9082;SDS011;4577;48.704;9.000;2022-09-13T06:11:13;11.30;;;4.50;;
9082;SDS011;4577;48.704;9.000;2022-09-13T06:13:39;5.90;;;4.20;;
9082;SDS011;4577;48.704;9.000;2022-09-13T06:16:08;8.10;;;4.23;;
9082;SDS011;4577;48.704;9.000;2022-09-13T06:18:35;8.60;;;5.20;;
9082;SDS011;4577;48.704;9.000;2022-09-13T06:21:02;7.10;;;4.70;;
9082;SDS011;4577;48.704;9.000;2022-09-13T06:23:33;8.13;;;5.07;;
9082;SDS011;4577;48.704;9.000;2022-09-13T06:26:09;8.77;;;4.90;;
9082;SDS011;4577;48.704;9.000;2022-09-13T06:28:36;7.90;;;4.87;;
9082;SDS011;4577;48.704;9.000;2022-09-13T06:31:04;8.00;;;5.13;;
9082;SDS011;4577;48.704;9.000;2022-09-13T06:33:32;11.13;;;5.50;;
9082;SDS011;4577;48.704;9.000;2022-09-13T06:35:59;9.73;;;4.80;;
9082;SDS011;4577;48.704;9.000;2022-09-13T06:38:26;11.80;;;5.10;;
9082;SDS011;4577;48.704;9.000;2022-09-13T06:40:59;11.43;;;4.93;;
9082;SDS011;4577;48.704;9.000;2022-09-13T06:43:30;9.23;;;5.07;;
9082;SDS011;4577;48.704;9.000;2022-09-13T06:46:00;14.07;;;5.40;;
9082;SDS011;4577;48.704;9.000;2022-09-13T06:48:34;7.63;;;6.10;;
9082;SDS011;4577;48.704;9.000;2022-09-13T06:51:01;9.53;;;5.60;;
9082;SDS011;4577;48.704;9.000;2022-09-13T06:53:29;12.93;;;5.30;;
9082;SDS011;4577;48.704;9.000;2022-09-13T06:56:03;7.63;;;5.17;;
9082;SDS011;4577;48.704;9.000;2022-09-13T06:58:29;13.40;;;5.23;;
9082;SDS011;4577;48.704;9.000;2022-09-13T07:01:09;13.40;;;9.10;;
9082;SDS011;4577;48.704;9.000;2022-09-13T07:03:36;13.20;;;9.90;;
9082;SDS011;4577;48.704;9.000;2022-09-13T07:06:07;12.60;;;5.67;;
9082;SDS011;4577;48.704;9.000;2022-09-13T07:08:34;5.73;;;4.50;;
9082;SDS011;4577;48.704;9.000;2022-09-13T07:11:00;7.43;;;4.30;;
9082;SDS011;4577;48.704;9.000;2022-09-13T07:13:26;9.70;;;5.43;;
9082;SDS011;4577;48.704;9.000;2022-09-13T07:15:52;7.37;;;5.97;;
9082;SDS011;4577;48.704;9.000;2022-09-13T07:18:18;14.47;;;5.97;;
9082;SDS011;4577;48.704;9.000;2022-09-13T07:20:44;10.23;;;5.00;;
9082;SDS011;4577;48.704;9.000;2022-09-13T07:23:10;6.47;;;4.40;;
9082;SDS011;4577;48.704;9.000;2022-09-13T07:25:36;10.10;;;4.70;;
9082;SDS011;4577;48.704;9.000;2022-09-13T07:28:04;6.70;;;4.90;;
9082;SDS011;4577;48.704;9.000;2022-09-13T07:30:30;6.90;;;5.00;;
9082;SDS011;4577;48.704;9.000;2022-09-13T07:32:55;17.13;;;7.43;;
9082;SDS011;4577;48.704;9.000;2022-09-13T07:35:21;9.90;;;6.10;;
9082;SDS011;4577;48.704;9.000;2022-09-13T07:37:47;16.67;;;10.50;;
9082;SDS011;4577;48.704;9.000;2022-09-13T07:40:13;26.90;;;15.60;;
9082;SDS011;4577;48.704;9.000;2022-09-13T07:42:39;25.40;;;14.17;;
9082;SDS011;4577;48.704;9.000;2022-09-13T07:45:06;11.30;;;6.13;;
9082;SDS011;4577;48.704;9.000;2022-09-13T07:47:32;13.80;;;8.97;;
9082;SDS011;4577;48.704;9.000;2022-09-13T07:49:58;13.73;;;7.73;;
9082;SDS011;4577;48.704;9.000;2022-09-13T07:52:24;11.70;;;4.83;;
9082;SDS011;4577;48.704;9.000;2022-09-13T07:54:50;15.07;;;6.80;;
9082;SDS011;4577;48.704;9.000;2022-09-13T07:57:16;7.63;;;5.37;;
9082;SDS011;4577;48.704;9.000;2022-09-13T07:59:42;12.70;;;5.00;;
9082;SDS011;4577;48.704;9.000;2022-09-13T08:02:16;5.73;;;4.20;;
9082;SDS011;4577;48.704;9.000;2022-09-13T08:04:42;16.30;;;8.00;;
9082;SDS011;4577;48.704;9.000;2022-09-13T08:07:08;8.80;;;6.40;;
9082;SDS011;4577;48.704;9.000;2022-09-13T08:09:34;9.63;;;7.30;;
9082;SDS011;4577;48.704;9.000;2022-09-13T08:12:00;14.00;;;7.83;;
9082;SDS011;4577;48.704;9.000;2022-09-13T08:14:26;15.70;;;9.73;;
9082;SDS011;4577;48.704;9.000;2022-09-13T08:16:55;21.90;;;14.20;;
9082;SDS011;4577;48.704;9.000;2022-09-13T08:19:21;13.70;;;9.60;;
9082;SDS011;4577;48.704;9.000;2022-09-13T08:21:47;12.70;;;7.60;;
9082;SDS011;4577;48.704;9.000;2022-09-13T08:24:17;16.80;;;9.57;;
9082;SDS011;4577;48.704;9.000;2022-09-13T08:26:45;7.53;;;4.87;;
9082;SDS011;4577;48.704;9.000;2022-09-13T08:29:12;6.47;;;5.40;;
9082;SDS011;4577;48.704;9.000;2022-09-13T08:31:38;9.60;;;4.60;;
9082;SDS011;4577;48.704;9.000;2022-09-13T08:34:06;13.97;;;7.63;;
9082;SDS011;4577;48.704;9.000;2022-09-13T08:36:35;10.83;;;3.80;;
9082;SDS011;4577;48.704;9.000;2022-09-13T08:39:01;12.63;;;3.90;;
9082;SDS011;4577;48.704;9.000;2022-09-13T08:44:17;14.20;;;4.77;;
9082;SDS011;4577;48.704;9.000;2022-09-13T08:50:11;4.27;;;3.60;;
9082;SDS011;4577;48.704;9.000;2022-09-13T08:57:47;5.07;;;2.90;;
9082;SDS011;4577;48.704;9.000;2022-09-13T09:00:20;4.03;;;2.80;;
9082;SDS011;4577;48.704;9.000;2022-09-13T09:05:28;4.17;;;3.77;;
9082;SDS011;4577;48.704;9.000;2022-09-13T09:07:57;6.27;;;4.07;;
9082;SDS011;4577;48.704;9.000;2022-09-13T09:10:28;8.87;;;2.53;;
9082;SDS011;4577;48.704;9.000;2022-09-13T09:15:55;15.70;;;6.50;;
9082;SDS011;4577;48.704;9.000;2022-09-13T09:18:29;8.33;;;4.10;;
9082;SDS011;4577;48.704;9.000;2022-09-13T09:20:58;3.70;;;3.30;;
9082;SDS011;4577;48.704;9.000;2022-09-13T09:28:41;13.07;;;9.90;;
9082;SDS011;4577;48.704;9.000;2022-09-13T09:31:37;5.50;;;3.83;;
9082;SDS011;4577;48.704;9.000;2022-09-13T09:34:46;18.27;;;5.67;;
9082;SDS011;4577;48.704;9.000;2022-09-13T09:37:22;10.53;;;6.73;;
9082;SDS011;4577;48.704;9.000;2022-09-13T09:39:50;11.40;;;6.13;;
9082;SDS011;4577;48.704;9.000;2022-09-13T09:42:19;15.10;;;3.77;;
9082;SDS011;4577;48.704;9.000;2022-09-13T09:44:52;13.67;;;5.10;;
9082;SDS011;4577;48.704;9.000;2022-09-13T09:47:25;23.10;;;7.60;;
9082;SDS011;4577;48.704;9.000;2022-09-13T09:49:55;5.87;;;3.10;;
9082;SDS011;4577;48.704;9.000;2022-09-13T09:55:30;2.77;;;1.97;;
9082;SDS011;4577;48.704;9.000;2022-09-13T09:58:00;50.47;;;6.53;;
9082;SDS011;4577;48.704;9.000;2022-09-13T10:00:31;10.00;;;3.70;;
9082;SDS011;4577;48.704;9.000;2022-09-13T10:03:15;11.80;;;3.70;;
9082;SDS011;4577;48.704;9.000;2022-09-13T10:05:43;2.10;;;1.30;;
9082;SDS011;4577;48.704;9.000;2022-09-13T10:08:29;1.70;;;1.40;;
9082;SDS011;4577;48.704;9.000;2022-09-13T10:10:57;21.47;;;2.47;;
9082;SDS011;4577;48.704;9.000;2022-09-13T10:13:25;18.37;;;2.63;;
9082;SDS011;4577;48.704;9.000;2022-09-13T10:15:58;7.80;;;2.67;;
9082;SDS011;4577;48.704;9.000;2022-09-13T10:18:27;12.27;;;2.43;;
9082;SDS011;4577;48.704;9.000;2022-09-13T10:23:56;4.37;;;2.30;;
9082;SDS011;4577;48.704;9.000;2022-09-13T10:26:40;5.90;;;3.90;;
9082;SDS011;4577;48.704;9.000;2022-09-13T10:29:07;6.00;;;3.17;;
9082;SDS011;4577;48.704;9.000;2022-09-13T10:31:38;4.50;;;3.10;;
9082;SDS011;4577;48.704;9.000;2022-09-13T10:34:10;6.87;;;3.43;;
9082;SDS011;4577;48.704;9.000;2022-09-13T10:36:51;3.53;;;3.20;;
9082;SDS011;4577;48.704;9.000;2022-09-13T10:39:29;3.33;;;2.03;;
9082;SDS011;4577;48.704;9.000;2022-09-13T10:42:04;4.60;;;1.50;;
9082;SDS011;4577;48.704;9.000;2022-09-13T10:44:33;2.13;;;1.60;;
9082;SDS011;4577;48.704;9.000;2022-09-13T10:47:10;2.83;;;1.43;;
9082;SDS011;4577;48.704;9.000;2022-09-13T10:49:46;3.50;;;1.43;;
9082;SDS011;4577;48.704;9.000;2022-09-13T10:57:43;3.20;;;2.20;;
9082;SDS011;4577;48.704;9.000;2022-09-13T11:00:17;5.20;;;3.00;;
9082;SDS011;4577;48.704;9.000;2022-09-13T11:57:03;6.03;;;3.97;;
9082;SDS011;4577;48.704;9.000;2022-09-13T12:51:13;8.10;;;3.60;;
9082;SDS011;4577;48.704;9.000;2022-09-13T13:00:12;5.83;;;3.73;;
9082;SDS011;4577;48.704;9.000;2022-09-13T13:02:52;5.63;;;3.50;;
9082;SDS011;4577;48.704;9.000;2022-09-13T13:05:33;7.00;;;3.20;;
9082;SDS011;4577;48.704;9.000;2022-09-13T13:08:23;9.63;;;8.53;;
9082;SDS011;4577;48.704;9.000;2022-09-13T13:13:36;8.17;;;3.60;;
9082;SDS011;4577;48.704;9.000;2022-09-13T13:16:37;148.37;;;96.13;;
9082;SDS011;4577;48.704;9.000;2022-09-13T13:18:59;80.23;;;49.70;;
9082;SDS011;4577;48.704;9.000;2022-09-13T13:29:12;9.67;;;6.47;;
9082;SDS011;4577;48.704;9.000;2022-09-13T13:36:49;6.87;;;3.40;;
9082;SDS011;4577;48.704;9.000;2022-09-13T13:41:52;10.20;;;7.10;;
9082;SDS011;4577;48.704;9.000;2022-09-13T13:59:54;8.43;;;4.00;;
9082;SDS011;4577;48.704;9.000;2022-09-13T14:02:44;22.00;;;3.20;;
9082;SDS011;4577;48.704;9.000;2022-09-13T14:05:28;3.93;;;2.97;;
9082;SDS011;4577;48.704;9.000;2022-09-13T14:15:44;10.77;;;7.60;;
9082;SDS011;4577;48.704;9.000;2022-09-13T14:21:28;5.70;;;4.17;;
9082;SDS011;4577;48.704;9.000;2022-09-13T14:26:38;5.97;;;4.10;;
9082;SDS011;4577;48.704;9.000;2022-09-13T14:29:05;7.20;;;4.70;;
9082;SDS011;4577;48.704;9.000;2022-09-13T14:31:33;5.07;;;4.10;;
9082;SDS011;4577;48.704;9.000;2022-09-13T14:33:59;2.13;;;1.67;;
9082;SDS011;4577;48.704;9.000;2022-09-13T14:36:25;8.13;;;6.73;;
9082;SDS011;4577;48.704;9.000;2022-09-13T14:39:00;10.03;;;4.30;;
9082;SDS011;4577;48.704;9.000;2022-09-13T14:41:33;3.40;;;1.80;;
9082;SDS011;4577;48.704;9.000;2022-09-13T14:44:23;3.90;;;1.40;;
9082;SDS011;4577;48.704;9.000;2022-09-13T14:46:52;3.20;;;1.40;;
9082;SDS011;4577;48.704;9.000;2022-09-13T14:49:25;3.70;;;1.30;;
9082;SDS011;4577;48.704;9.000;2022-09-13T14:51:59;1.57;;;1.00;;
9082;SDS011;4577;48.704;9.000;2022-09-13T14:54:34;5.03;;;1.33;;
9082;SDS011;4577;48.704;9.000;2022-09-13T14:57:09;11.27;;;7.93;;
9082;SDS011;4577;48.704;9.000;2022-09-13T14:59:46;9.13;;;7.30;;
9082;SDS011;4577;48.704;9.000;2022-09-13T15:02:19;5.33;;;3.80;;
9082;SDS011;4577;48.704;9.000;2022-09-13T15:04:52;7.37;;;3.60;;
9082;SDS011;4577;48.704;9.000;2022-09-13T15:07:21;7.10;;;2.53;;
9082;SDS011;4577;48.704;9.000;2022-09-13T15:10:41;8.13;;;1.50;;
9082;SDS011;4577;48.704;9.000;2022-09-13T15:20:44;6.10;;;5.50;;
9082;SDS011;4577;48.704;9.000;2022-09-13T15:23:17;3.23;;;2.90;;
9082;SDS011;4577;48.704;9.000;2022-09-13T15:25:49;18.47;;;9.57;;
9082;SDS011;4577;48.704;9.000;2022-09-13T15:28:21;31.30;;;20.10;;
9082;SDS011;4577;48.704;9.000;2022-09-13T15:30:51;8.10;;;6.10;;
9082;SDS011;4577;48.704;9.000;2022-09-13T15:33:22;46.90;;;28.53;;
9082;SDS011;4577;48.704;9.000;2022-09-13T15:35:50;12.83;;;8.60;;
9082;SDS011;4577;48.704;9.000;2022-09-13T15:38:25;10.20;;;7.23;;
9082;SDS011;4577;48.704;9.000;2022-09-13T15:41:10;3.23;;;2.93;;
9082;SDS011;4577;48.704;9.000;2022-09-13T15:43:38;9.90;;;5.07;;
9082;SDS011;4577;48.704;9.000;2022-09-13T15:46:04;6.87;;;4.90;;
9082;SDS011;4577;48.704;9.000;2022-09-13T15:48:32;4.63;;;3.90;;
9082;SDS011;4577;48.704;9.000;2022-09-13T15:51:12;5.83;;;4.40;;
9082;SDS011;4577;48.704;9.000;2022-09-13T15:53:42;11.30;;;6.90;;
9082;SDS011;4577;48.704;9.000;2022-09-13T15:56:11;9.67;;;7.10;;
9082;SDS011;4577;48.704;9.000;2022-09-13T15:58:39;7.97;;;6.37;;
9082;SDS011;4577;48.704;9.000;2022-09-13T16:01:05;7.67;;;5.30;;
9082;SDS011;4577;48.704;9.000;2022-09-13T16:03:31;6.77;;;4.47;;
9082;SDS011;4577;48.704;9.000;2022-09-13T16:05:57;5.83;;;5.00;;
9082;SDS011;4577;48.704;9.000;2022-09-13T16:08:23;10.40;;;3.37;;
9082;SDS011;4577;48.704;9.000;2022-09-13T16:10:50;6.20;;;3.00;;
9082;SDS011;4577;48.704;9.000;2022-09-13T16:13:16;3.30;;;3.00;;
9082;SDS011;4577;48.704;9.000;2022-09-13T16:15:42;4.33;;;3.37;;
9082;SDS011;4577;48.704;9.000;2022-09-13T16:18:08;5.37;;;3.90;;
9082;SDS011;4577;48.704;9.000;2022-09-13T16:20:34;4.27;;;3.87;;
9082;SDS011;4577;48.704;9.000;2022-09-13T16:23:01;5.47;;;2.93;;
9082;SDS011;4577;48.704;9.000;2022-09-13T16:25:27;6.80;;;5.73;;
9082;SDS011;4577;48.704;9.000;2022-09-13T16:27:52;9.80;;;8.50;;
9082;SDS011;4577;48.704;9.000;2022-09-13T16:30:19;15.43;;;7.63;;
9082;SDS011;4577;48.704;9.000;2022-09-13T16:32:48;12.73;;;9.30;;
9082;SDS011;4577;48.704;9.000;2022-09-13T16:35:23;16.80;;;10.90;;
9082;SDS011;4577;48.704;9.000;2022-09-13T16:37:55;15.83;;;11.00;;
9082;SDS011;4577;48.704;9.000;2022-09-13T16:40:21;6.50;;;5.50;;
9082;SDS011;4577;48.704;9.000;2022-09-13T16:42:47;12.23;;;5.57;;
9082;SDS011;4577;48.704;9.000;2022-09-13T16:45:13;5.77;;;3.50;;
9082;SDS011;4577;48.704;9.000;2022-09-13T16:47:39;9.20;;;3.60;;
9082;SDS011;4577;48.704;9.000;2022-09-13T16:50:06;7.00;;;2.90;;
9082;SDS011;4577;48.704;9.000;2022-09-13T16:52:33;6.60;;;2.80;;
9082;SDS011;4577;48.704;9.000;2022-09-13T16:54:59;3.50;;;2.93;;
9082;SDS011;4577;48.704;9.000;2022-09-13T16:57:26;9.80;;;7.80;;
9082;SDS011;4577;48.704;9.000;2022-09-13T16:59:52;20.67;;;15.17;;
9082;SDS011;4577;48.704;9.000;2022-09-13T17:02:23;11.77;;;4.80;;
9082;SDS011;4577;48.704;9.000;2022-09-13T17:04:52;6.90;;;3.50;;
9082;SDS011;4577;48.704;9.000;2022-09-13T17:07:18;10.83;;;4.97;;
9082;SDS011;4577;48.704;9.000;2022-09-13T17:09:44;9.40;;;6.30;;
9082;SDS011;4577;48.704;9.000;2022-09-13T17:12:12;11.10;;;6.50;;
9082;SDS011;4577;48.704;9.000;2022-09-13T17:14:38;9.93;;;5.10;;
9082;SDS011;4577;48.704;9.000;2022-09-13T17:17:06;15.57;;;10.67;;
9082;SDS011;4577;48.704;9.000;2022-09-13T17:19:33;16.03;;;9.20;;
9082;SDS011;4577;48.704;9.000;2022-09-13T17:22:00;10.07;;;5.40;;
9082;SDS011;4577;48.704;9.000;2022-09-13T17:24:29;7.13;;;5.87;;
9082;SDS011;4577;48.704;9.000;2022-09-13T17:26:55;27.27;;;21.80;;
9082;SDS011;4577;48.704;9.000;2022-09-13T17:29:22;14.90;;;10.63;;
9082;SDS011;4577;48.704;9.000;2022-09-13T17:31:58;9.87;;;6.43;;
9082;SDS011;4577;48.704;9.000;2022-09-13T17:34:26;6.30;;;5.30;;
9082;SDS011;4577;48.704;9.000;2022-09-13T17:36:52;7.60;;;4.20;;
9082;SDS011;4577;48.704;9.000;2022-09-13T17:39:21;13.10;;;7.57;;
9082;SDS011;4577;48.704;9.000;2022-09-13T17:41:47;16.33;;;9.60;;
9082;SDS011;4577;48.704;9.000;2022-09-13T17:44:13;18.50;;;11.33;;
9082;SDS011;4577;48.704;9.000;2022-09-13T17:46:40;20.20;;;14.27;;
9082;SDS011;4577;48.704;9.000;2022-09-13T17:49:06;18.30;;;11.60;;
9082;SDS011;4577;48.704;9.000;2022-09-13T17:51:33;17.97;;;9.17;;
9082;SDS011;4577;48.704;9.000;2022-09-13T17:54:00;8.30;;;6.20;;
9082;SDS011;4577;48.704;9.000;2022-09-13T17:56:31;19.20;;;14.97;;
9082;SDS011;4577;48.704;9.000;2022-09-13T17:59:11;36.27;;;26.00;;
9082;SDS011;4577;48.704;9.000;2022-09-13T18:01:45;23.33;;;15.40;;
9082;SDS011;4577;48.704;9.000;2022-09-13T18:04:17;14.20;;;9.67;;
9082;SDS011;4577;48.704;9.000;2022-09-13T18:06:45;11.63;;;7.00;;
9082;SDS011;4577;48.704;9.000;2022-09-13T18:09:12;11.40;;;8.43;;
9082;SDS011;4577;48.704;9.000;2022-09-13T18:11:40;18.87;;;12.37;;
9082;SDS011;4577;48.704;9.000;2022-09-13T18:14:09;60.90;;;37.23;;
9082;SDS011;4577;48.704;9.000;2022-09-13T18:16:37;51.20;;;37.77;;
9082;SDS011;4577;48.704;9.000;2022-09-13T18:19:04;62.80;;;48.70;;
9082;SDS011;4577;48.704;9.000;2022-09-13T18:21:30;132.97;;;97.77;;
9082;SDS011;4577;48.704;9.000;2022-09-13T18:23:57;68.20;;;50.77;;
9082;SDS011;4577;48.704;9.000;2022-09-13T18:26:26;39.93;;;26.40;;
9082;SDS011;4577;48.704;9.000;2022-09-13T18:28:54;41.03;;;28.77;;
9082;SDS011;4577;48.704;9.000;2022-09-13T18:31:29;26.60;;;19.50;;
9082;SDS011;4577;48.704;9.000;2022-09-13T18:33:58;27.77;;;15.73;;
9082;SDS011;4577;48.704;9.000;2022-09-13T18:36:29;14.47;;;10.60;;
9082;SDS011;4577;48.704;9.000;2022-09-13T18:38:57;16.23;;;12.00;;
9082;SDS011;4577;48.704;9.000;2022-09-13T18:41:25;6.70;;;3.90;;
9082;SDS011;4577;48.704;9.000;2022-09-13T18:43:54;9.20;;;5.00;;
9082;SDS011;4577;48.704;9.000;2022-09-13T18:46:24;10.30;;;4.87;;
9082;SDS011;4577;48.704;9.000;2022-09-13T18:48:53;20.73;;;13.50;;
9082;SDS011;4577;48.704;9.000;2022-09-13T18:51:31;18.77;;;12.03;;
9082;SDS011;4577;48.704;9.000;2022-09-13T18:54:05;12.37;;;6.10;;
9082;SDS011;4577;48.704;9.000;2022-09-13T18:56:32;6.87;;;5.60;;
9082;SDS011;4577;48.704;9.000;2022-09-13T18:58:59;6.33;;;4.03;;
9082;SDS011;4577;48.704;9.000;2022-09-13T19:01:28;9.10;;;3.80;;
9082;SDS011;4577;48.704;9.000;2022-09-13T19:04:04;6.17;;;3.30;;
9082;SDS011;4577;48.704;9.000;2022-09-13T19:06:45;9.47;;;6.10;;
9082;SDS011;4577;48.704;9.000;2022-09-13T19:09:15;28.37;;;19.03;;
9082;SDS011;4577;48.704;9.000;2022-09-13T19:11:44;16.40;;;9.20;;
9082;SDS011;4577;48.704;9.000;2022-09-13T19:14:12;15.90;;;10.10;;
9082;SDS011;4577;48.704;9.000;2022-09-13T19:16:43;9.97;;;6.50;;
9082;SDS011;4577;48.704;9.000;2022-09-13T19:19:09;11.00;;;7.50;;
9082;SDS011;4577;48.704;9.000;2022-09-13T19:21:35;13.93;;;9.77;;
9082;SDS011;4577;48.704;9.000;2022-09-13T19:24:01;17.43;;;11.93;;
9082;SDS011;4577;48.704;9.000;2022-09-13T19:26:30;19.53;;;12.00;;
9082;SDS011;4577;48.704;9.000;2022-09-13T19:29:05;31.60;;;22.60;;
9082;SDS011;4577;48.704;9.000;2022-09-13T19:31:33;27.60;;;19.70;;
9082;SDS011;4577;48.704;9.000;2022-09-13T19:34:02;8.97;;;6.47;;
9082;SDS011;4577;48.704;9.000;2022-09-13T19:36:30;7.73;;;4.73;;
9082;SDS011;4577;48.704;9.000;2022-09-13T19:38:58;11.80;;;9.63;;
9082;SDS011;4577;48.704;9.000;2022-09-13T19:41:25;16.90;;;7.30;;
9082;SDS011;4577;48.704;9.000;2022-09-13T19:43:54;11.07;;;8.87;;
9082;SDS011;4577;48.704;9.000;2022-09-13T19:46:23;20.40;;;13.60;;
9082;SDS011;4577;48.704;9.000;2022-09-13T19:48:52;7.20;;;5.00;;
9082;SDS011;4577;48.704;9.000;2022-09-13T19:51:23;14.73;;;5.27;;